Terminal Aerodrome Forecast
Issued by NWS Sterling, VA

Home | Current Version | Previous Version | Text Only | Print | Product List | Glossary On
Versions: 1 2 3 4 5 6 7 8 9 10 11 12 13 14 15 16
000
FTUS41 KLWX 272339
TAFMRB
TAF
KMRB 272339Z 2800/2824 23004KT P6SM BKN250
     FM280400 20006KT 5SM BR SCT150
     FM280700 VRB03KT 2SM BR SCT250
     FM281200 00000KT P6SM SCT150
     FM281600 VRB03KT P6SM SCT050 BKN090
     FM282300 25004KT P6SM SCT110=

USA.gov is the U.S. government's official web portal to all federal, state and local government web resources and services.